sensor_id;sensor_type;location;lat;lon;timestamp;P1;durP1;ratioP1;P2;durP2;ratioP2
5585;SDS011;2815;54.094;12.112;2023-03-19T00:02:28;57.85;;;26.27;;
5585;SDS011;2815;54.094;12.112;2023-03-19T00:05:16;58.15;;;27.15;;
5585;SDS011;2815;54.094;12.112;2023-03-19T00:08:04;57.38;;;25.35;;
5585;SDS011;2815;54.094;12.112;2023-03-19T00:10:51;58.25;;;26.45;;
5585;SDS011;2815;54.094;12.112;2023-03-19T00:13:37;56.85;;;26.73;;
5585;SDS011;2815;54.094;12.112;2023-03-19T00:16:25;57.08;;;26.90;;
5585;SDS011;2815;54.094;12.112;2023-03-19T00:19:13;60.13;;;27.13;;
5585;SDS011;2815;54.094;12.112;2023-03-19T00:22:00;53.47;;;26.20;;
5585;SDS011;2815;54.094;12.112;2023-03-19T00:24:46;62.40;;;27.55;;
5585;SDS011;2815;54.094;12.112;2023-03-19T00:27:33;62.35;;;26.33;;
5585;SDS011;2815;54.094;12.112;2023-03-19T00:30:20;52.80;;;24.33;;
5585;SDS011;2815;54.094;12.112;2023-03-19T00:33:08;47.55;;;24.85;;
5585;SDS011;2815;54.094;12.112;2023-03-19T00:35:56;52.63;;;26.42;;
5585;SDS011;2815;54.094;12.112;2023-03-19T00:38:43;50.28;;;25.13;;
5585;SDS011;2815;54.094;12.112;2023-03-19T00:41:30;52.25;;;25.40;;
5585;SDS011;2815;54.094;12.112;2023-03-19T00:44:17;47.83;;;24.40;;
5585;SDS011;2815;54.094;12.112;2023-03-19T00:47:04;47.33;;;24.20;;
5585;SDS011;2815;54.094;12.112;2023-03-19T00:49:51;45.88;;;24.10;;
5585;SDS011;2815;54.094;12.112;2023-03-19T00:52:40;51.97;;;24.70;;
5585;SDS011;2815;54.094;12.112;2023-03-19T00:55:26;45.60;;;23.67;;
5585;SDS011;2815;54.094;12.112;2023-03-19T00:58:13;52.35;;;25.77;;
5585;SDS011;2815;54.094;12.112;2023-03-19T01:01:00;48.80;;;24.30;;
5585;SDS011;2815;54.094;12.112;2023-03-19T01:03:47;46.50;;;25.30;;
5585;SDS011;2815;54.094;12.112;2023-03-19T01:06:34;54.85;;;26.35;;
5585;SDS011;2815;54.094;12.112;2023-03-19T01:09:22;43.75;;;24.25;;
5585;SDS011;2815;54.094;12.112;2023-03-19T01:12:09;43.85;;;22.92;;
5585;SDS011;2815;54.094;12.112;2023-03-19T01:14:56;44.70;;;23.17;;
5585;SDS011;2815;54.094;12.112;2023-03-19T01:17:43;40.92;;;22.83;;
5585;SDS011;2815;54.094;12.112;2023-03-19T01:20:30;36.95;;;21.98;;
5585;SDS011;2815;54.094;12.112;2023-03-19T01:23:18;39.90;;;22.83;;
5585;SDS011;2815;54.094;12.112;2023-03-19T01:26:06;37.17;;;22.42;;
5585;SDS011;2815;54.094;12.112;2023-03-19T01:28:53;35.75;;;21.73;;
5585;SDS011;2815;54.094;12.112;2023-03-19T01:31:40;37.92;;;20.10;;
5585;SDS011;2815;54.094;12.112;2023-03-19T01:34:45;35.08;;;20.80;;
5585;SDS011;2815;54.094;12.112;2023-03-19T01:37:34;35.40;;;21.17;;
5585;SDS011;2815;54.094;12.112;2023-03-19T01:40:21;35.58;;;21.45;;
5585;SDS011;2815;54.094;12.112;2023-03-19T01:43:13;38.80;;;21.92;;
5585;SDS011;2815;54.094;12.112;2023-03-19T01:46:25;36.33;;;21.95;;
5585;SDS011;2815;54.094;12.112;2023-03-19T01:49:32;42.35;;;22.63;;
5585;SDS011;2815;54.094;12.112;2023-03-19T01:52:35;33.95;;;21.13;;
5585;SDS011;2815;54.094;12.112;2023-03-19T01:55:38;37.08;;;21.65;;
5585;SDS011;2815;54.094;12.112;2023-03-19T01:58:38;38.80;;;22.10;;
5585;SDS011;2815;54.094;12.112;2023-03-19T02:01:36;34.08;;;21.10;;
5585;SDS011;2815;54.094;12.112;2023-03-19T02:04:25;36.47;;;21.52;;
5585;SDS011;2815;54.094;12.112;2023-03-19T02:07:13;37.58;;;21.08;;
5585;SDS011;2815;54.094;12.112;2023-03-19T02:10:01;38.17;;;20.90;;
5585;SDS011;2815;54.094;12.112;2023-03-19T02:12:50;32.90;;;20.15;;
5585;SDS011;2815;54.094;12.112;2023-03-19T02:15:38;36.17;;;22.17;;
5585;SDS011;2815;54.094;12.112;2023-03-19T02:18:26;34.25;;;21.10;;
5585;SDS011;2815;54.094;12.112;2023-03-19T02:21:13;38.42;;;22.08;;
5585;SDS011;2815;54.094;12.112;2023-03-19T02:24:05;40.85;;;21.50;;
5585;SDS011;2815;54.094;12.112;2023-03-19T02:27:06;35.60;;;21.05;;
5585;SDS011;2815;54.094;12.112;2023-03-19T02:29:57;33.90;;;20.83;;
5585;SDS011;2815;54.094;12.112;2023-03-19T02:32:46;33.70;;;21.50;;
5585;SDS011;2815;54.094;12.112;2023-03-19T02:35:33;41.60;;;22.90;;
5585;SDS011;2815;54.094;12.112;2023-03-19T02:38:20;35.65;;;21.58;;
5585;SDS011;2815;54.094;12.112;2023-03-19T02:41:09;35.88;;;22.27;;
5585;SDS011;2815;54.094;12.112;2023-03-19T02:43:58;39.58;;;23.15;;
5585;SDS011;2815;54.094;12.112;2023-03-19T02:46:45;37.83;;;22.95;;
5585;SDS011;2815;54.094;12.112;2023-03-19T02:49:32;33.97;;;21.45;;
5585;SDS011;2815;54.094;12.112;2023-03-19T02:52:20;37.42;;;22.73;;
5585;SDS011;2815;54.094;12.112;2023-03-19T02:55:08;34.35;;;21.52;;
5585;SDS011;2815;54.094;12.112;2023-03-19T02:57:55;35.88;;;22.13;;
5585;SDS011;2815;54.094;12.112;2023-03-19T03:00:43;37.25;;;23.13;;
5585;SDS011;2815;54.094;12.112;2023-03-19T03:03:30;38.67;;;23.27;;
5585;SDS011;2815;54.094;12.112;2023-03-19T03:06:17;36.58;;;22.13;;
5585;SDS011;2815;54.094;12.112;2023-03-19T03:09:04;37.30;;;21.30;;
5585;SDS011;2815;54.094;12.112;2023-03-19T03:11:51;36.97;;;21.35;;
5585;SDS011;2815;54.094;12.112;2023-03-19T03:14:37;36.83;;;21.13;;
5585;SDS011;2815;54.094;12.112;2023-03-19T03:17:25;38.58;;;21.95;;
5585;SDS011;2815;54.094;12.112;2023-03-19T03:20:14;35.42;;;21.40;;
5585;SDS011;2815;54.094;12.112;2023-03-19T03:23:02;36.70;;;21.08;;
5585;SDS011;2815;54.094;12.112;2023-03-19T03:25:49;36.30;;;22.17;;
5585;SDS011;2815;54.094;12.112;2023-03-19T03:28:36;40.00;;;22.98;;
5585;SDS011;2815;54.094;12.112;2023-03-19T03:31:22;33.10;;;21.33;;
5585;SDS011;2815;54.094;12.112;2023-03-19T03:34:10;33.53;;;20.50;;
5585;SDS011;2815;54.094;12.112;2023-03-19T03:36:57;36.88;;;21.50;;
5585;SDS011;2815;54.094;12.112;2023-03-19T03:39:44;37.17;;;21.33;;
5585;SDS011;2815;54.094;12.112;2023-03-19T03:42:32;32.78;;;21.35;;
5585;SDS011;2815;54.094;12.112;2023-03-19T03:45:21;38.22;;;21.02;;
5585;SDS011;2815;54.094;12.112;2023-03-19T03:48:09;37.25;;;20.55;;
5585;SDS011;2815;54.094;12.112;2023-03-19T03:50:58;35.30;;;20.65;;
5585;SDS011;2815;54.094;12.112;2023-03-19T03:53:46;40.45;;;21.75;;
5585;SDS011;2815;54.094;12.112;2023-03-19T03:56:32;38.33;;;21.55;;
5585;SDS011;2815;54.094;12.112;2023-03-19T03:59:19;36.72;;;22.02;;
5585;SDS011;2815;54.094;12.112;2023-03-19T04:02:06;38.70;;;22.17;;
5585;SDS011;2815;54.094;12.112;2023-03-19T04:04:53;37.00;;;20.38;;
5585;SDS011;2815;54.094;12.112;2023-03-19T04:07:42;39.10;;;20.90;;
5585;SDS011;2815;54.094;12.112;2023-03-19T04:10:28;38.33;;;19.67;;
5585;SDS011;2815;54.094;12.112;2023-03-19T04:13:15;36.80;;;21.85;;
5585;SDS011;2815;54.094;12.112;2023-03-19T04:16:03;35.70;;;21.83;;
5585;SDS011;2815;54.094;12.112;2023-03-19T04:18:50;36.90;;;20.77;;
5585;SDS011;2815;54.094;12.112;2023-03-19T04:21:37;31.35;;;19.52;;
5585;SDS011;2815;54.094;12.112;2023-03-19T04:24:25;38.47;;;21.60;;
5585;SDS011;2815;54.094;12.112;2023-03-19T04:27:12;34.42;;;20.52;;
5585;SDS011;2815;54.094;12.112;2023-03-19T04:29:59;33.38;;;20.30;;
5585;SDS011;2815;54.094;12.112;2023-03-19T04:32:47;43.35;;;22.83;;
5585;SDS011;2815;54.094;12.112;2023-03-19T04:35:34;34.40;;;21.50;;
5585;SDS011;2815;54.094;12.112;2023-03-19T04:38:21;35.78;;;22.10;;
5585;SDS011;2815;54.094;12.112;2023-03-19T04:41:11;38.03;;;22.25;;
5585;SDS011;2815;54.094;12.112;2023-03-19T04:44:10;31.33;;;20.33;;
5585;SDS011;2815;54.094;12.112;2023-03-19T04:46:58;33.50;;;21.55;;
5585;SDS011;2815;54.094;12.112;2023-03-19T04:49:49;36.38;;;22.33;;
5585;SDS011;2815;54.094;12.112;2023-03-19T04:52:37;37.17;;;20.65;;
5585;SDS011;2815;54.094;12.112;2023-03-19T04:55:24;39.25;;;20.52;;
5585;SDS011;2815;54.094;12.112;2023-03-19T04:58:22;36.22;;;20.17;;
5585;SDS011;2815;54.094;12.112;2023-03-19T05:01:16;35.63;;;21.35;;
5585;SDS011;2815;54.094;12.112;2023-03-19T05:04:18;36.17;;;21.08;;
5585;SDS011;2815;54.094;12.112;2023-03-19T05:07:06;36.08;;;21.23;;
5585;SDS011;2815;54.094;12.112;2023-03-19T05:09:53;36.33;;;21.02;;
5585;SDS011;2815;54.094;12.112;2023-03-19T05:12:40;35.05;;;20.50;;
5585;SDS011;2815;54.094;12.112;2023-03-19T05:15:30;31.85;;;21.13;;
5585;SDS011;2815;54.094;12.112;2023-03-19T05:18:21;35.75;;;21.50;;
5585;SDS011;2815;54.094;12.112;2023-03-19T05:21:09;34.58;;;21.98;;
5585;SDS011;2815;54.094;12.112;2023-03-19T05:23:56;35.10;;;21.90;;
5585;SDS011;2815;54.094;12.112;2023-03-19T05:26:46;33.63;;;21.02;;
5585;SDS011;2815;54.094;12.112;2023-03-19T05:29:37;38.67;;;20.27;;
5585;SDS011;2815;54.094;12.112;2023-03-19T05:32:45;34.83;;;19.88;;
5585;SDS011;2815;54.094;12.112;2023-03-19T05:35:42;33.47;;;20.60;;
5585;SDS011;2815;54.094;12.112;2023-03-19T05:38:39;34.63;;;21.40;;
5585;SDS011;2815;54.094;12.112;2023-03-19T05:44:21;33.55;;;20.15;;
5585;SDS011;2815;54.094;12.112;2023-03-19T05:47:15;39.25;;;21.23;;
5585;SDS011;2815;54.094;12.112;2023-03-19T05:50:11;34.80;;;20.67;;
5585;SDS011;2815;54.094;12.112;2023-03-19T05:53:06;35.03;;;21.42;;
5585;SDS011;2815;54.094;12.112;2023-03-19T05:55:56;35.78;;;20.58;;
5585;SDS011;2815;54.094;12.112;2023-03-19T05:58:44;42.85;;;21.90;;
5585;SDS011;2815;54.094;12.112;2023-03-19T06:01:35;33.72;;;20.60;;
5585;SDS011;2815;54.094;12.112;2023-03-19T06:04:22;34.92;;;20.30;;
5585;SDS011;2815;54.094;12.112;2023-03-19T06:07:10;35.50;;;20.40;;
5585;SDS011;2815;54.094;12.112;2023-03-19T06:09:58;32.90;;;20.25;;
5585;SDS011;2815;54.094;12.112;2023-03-19T06:12:44;36.00;;;21.08;;
5585;SDS011;2815;54.094;12.112;2023-03-19T06:15:46;31.95;;;20.45;;
5585;SDS011;2815;54.094;12.112;2023-03-19T06:18:53;35.20;;;21.42;;
5585;SDS011;2815;54.094;12.112;2023-03-19T06:21:41;32.13;;;20.27;;
5585;SDS011;2815;54.094;12.112;2023-03-19T06:24:29;35.53;;;21.85;;
5585;SDS011;2815;54.094;12.112;2023-03-19T06:27:16;37.42;;;23.17;;
5585;SDS011;2815;54.094;12.112;2023-03-19T06:30:03;36.88;;;21.25;;
5585;SDS011;2815;54.094;12.112;2023-03-19T06:32:52;40.65;;;22.20;;
5585;SDS011;2815;54.094;12.112;2023-03-19T06:35:39;35.10;;;21.50;;
5585;SDS011;2815;54.094;12.112;2023-03-19T06:38:26;40.67;;;22.27;;
5585;SDS011;2815;54.094;12.112;2023-03-19T06:41:14;33.53;;;20.13;;
5585;SDS011;2815;54.094;12.112;2023-03-19T06:44:03;38.25;;;21.92;;
5585;SDS011;2815;54.094;12.112;2023-03-19T06:46:50;41.95;;;22.02;;
5585;SDS011;2815;54.094;12.112;2023-03-19T06:49:38;36.40;;;21.63;;
5585;SDS011;2815;54.094;12.112;2023-03-19T06:52:25;34.67;;;22.05;;
5585;SDS011;2815;54.094;12.112;2023-03-19T06:55:11;39.78;;;22.13;;
5585;SDS011;2815;54.094;12.112;2023-03-19T06:57:59;36.00;;;21.00;;
5585;SDS011;2815;54.094;12.112;2023-03-19T07:00:47;34.05;;;21.60;;
5585;SDS011;2815;54.094;12.112;2023-03-19T07:03:33;36.30;;;21.52;;
5585;SDS011;2815;54.094;12.112;2023-03-19T07:06:20;35.05;;;21.90;;
5585;SDS011;2815;54.094;12.112;2023-03-19T07:09:07;35.13;;;21.63;;
5585;SDS011;2815;54.094;12.112;2023-03-19T07:11:54;34.75;;;22.25;;
5585;SDS011;2815;54.094;12.112;2023-03-19T07:14:42;42.35;;;22.83;;
5585;SDS011;2815;54.094;12.112;2023-03-19T07:17:29;32.60;;;21.20;;
5585;SDS011;2815;54.094;12.112;2023-03-19T07:20:20;34.65;;;21.33;;
5585;SDS011;2815;54.094;12.112;2023-03-19T07:23:07;32.47;;;20.33;;
5585;SDS011;2815;54.094;12.112;2023-03-19T07:25:54;37.05;;;20.20;;
5585;SDS011;2815;54.094;12.112;2023-03-19T07:28:43;31.05;;;19.80;;
5585;SDS011;2815;54.094;12.112;2023-03-19T07:31:31;29.88;;;19.00;;
5585;SDS011;2815;54.094;12.112;2023-03-19T07:34:18;35.95;;;19.40;;
5585;SDS011;2815;54.094;12.112;2023-03-19T07:37:05;28.17;;;18.65;;
5585;SDS011;2815;54.094;12.112;2023-03-19T07:39:52;28.48;;;17.98;;
5585;SDS011;2815;54.094;12.112;2023-03-19T07:42:39;28.35;;;18.35;;
5585;SDS011;2815;54.094;12.112;2023-03-19T07:45:29;29.65;;;19.08;;
5585;SDS011;2815;54.094;12.112;2023-03-19T07:48:17;26.60;;;18.08;;
5585;SDS011;2815;54.094;12.112;2023-03-19T07:51:05;27.10;;;17.80;;
5585;SDS011;2815;54.094;12.112;2023-03-19T07:53:52;27.83;;;17.77;;
5585;SDS011;2815;54.094;12.112;2023-03-19T07:56:39;28.20;;;15.98;;
5585;SDS011;2815;54.094;12.112;2023-03-19T07:59:26;24.75;;;16.58;;
5585;SDS011;2815;54.094;12.112;2023-03-19T08:02:13;25.17;;;15.65;;
5585;SDS011;2815;54.094;12.112;2023-03-19T08:05:02;21.98;;;12.93;;
5585;SDS011;2815;54.094;12.112;2023-03-19T08:07:52;23.05;;;13.98;;
5585;SDS011;2815;54.094;12.112;2023-03-19T08:10:39;19.05;;;12.20;;
5585;SDS011;2815;54.094;12.112;2023-03-19T08:13:29;18.58;;;12.60;;
5585;SDS011;2815;54.094;12.112;2023-03-19T08:16:16;20.52;;;12.13;;
5585;SDS011;2815;54.094;12.112;2023-03-19T08:19:02;18.05;;;11.40;;
5585;SDS011;2815;54.094;12.112;2023-03-19T08:21:52;17.77;;;11.63;;
5585;SDS011;2815;54.094;12.112;2023-03-19T08:24:40;14.18;;;9.38;;
5585;SDS011;2815;54.094;12.112;2023-03-19T08:27:27;14.48;;;9.85;;
5585;SDS011;2815;54.094;12.112;2023-03-19T08:30:14;12.88;;;8.75;;
5585;SDS011;2815;54.094;12.112;2023-03-19T08:33:01;10.68;;;8.00;;
5585;SDS011;2815;54.094;12.112;2023-03-19T08:35:48;13.50;;;9.05;;
5585;SDS011;2815;54.094;12.112;2023-03-19T08:38:38;11.00;;;7.78;;
5585;SDS011;2815;54.094;12.112;2023-03-19T08:41:24;13.07;;;8.70;;
5585;SDS011;2815;54.094;12.112;2023-03-19T08:44:11;11.27;;;7.25;;
5585;SDS011;2815;54.094;12.112;2023-03-19T08:46:58;9.50;;;6.78;;
5585;SDS011;2815;54.094;12.112;2023-03-19T08:49:45;8.32;;;6.13;;
5585;SDS011;2815;54.094;12.112;2023-03-19T08:52:32;7.25;;;5.53;;
5585;SDS011;2815;54.094;12.112;2023-03-19T08:55:20;8.55;;;5.75;;
5585;SDS011;2815;54.094;12.112;2023-03-19T08:58:07;11.77;;;5.28;;
5585;SDS011;2815;54.094;12.112;2023-03-19T09:00:59;9.73;;;4.88;;
5585;SDS011;2815;54.094;12.112;2023-03-19T09:03:47;7.30;;;4.43;;
5585;SDS011;2815;54.094;12.112;2023-03-19T09:06:34;6.90;;;4.30;;
5585;SDS011;2815;54.094;12.112;2023-03-19T09:09:21;6.35;;;4.10;;
5585;SDS011;2815;54.094;12.112;2023-03-19T09:12:11;6.45;;;3.92;;
5585;SDS011;2815;54.094;12.112;2023-03-19T09:14:59;4.75;;;3.20;;
5585;SDS011;2815;54.094;12.112;2023-03-19T09:17:46;6.85;;;3.92;;
5585;SDS011;2815;54.094;12.112;2023-03-19T09:20:33;4.07;;;2.08;;
5585;SDS011;2815;54.094;12.112;2023-03-19T09:23:20;4.32;;;2.40;;
5585;SDS011;2815;54.094;12.112;2023-03-19T09:26:07;3.72;;;2.50;;
5585;SDS011;2815;54.094;12.112;2023-03-19T09:28:55;4.90;;;2.33;;
5585;SDS011;2815;54.094;12.112;2023-03-19T09:31:43;5.85;;;2.80;;
5585;SDS011;2815;54.094;12.112;2023-03-19T09:34:29;3.78;;;2.47;;
5585;SDS011;2815;54.094;12.112;2023-03-19T09:37:16;4.47;;;2.67;;
5585;SDS011;2815;54.094;12.112;2023-03-19T09:40:03;3.88;;;2.75;;
5585;SDS011;2815;54.094;12.112;2023-03-19T09:42:54;5.05;;;3.03;;
5585;SDS011;2815;54.094;12.112;2023-03-19T09:45:48;4.43;;;3.10;;
5585;SDS011;2815;54.094;12.112;2023-03-19T09:48:38;6.18;;;2.88;;
5585;SDS011;2815;54.094;12.112;2023-03-19T09:54:21;5.28;;;2.75;;
5585;SDS011;2815;54.094;12.112;2023-03-19T09:57:19;3.45;;;2.75;;
5585;SDS011;2815;54.094;12.112;2023-03-19T10:00:13;3.60;;;2.67;;
5585;SDS011;2815;54.094;12.112;2023-03-19T10:03:10;4.00;;;2.90;;
5585;SDS011;2815;54.094;12.112;2023-03-19T10:06:09;5.88;;;2.88;;
5585;SDS011;2815;54.094;12.112;2023-03-19T10:09:25;3.92;;;3.00;;
5585;SDS011;2815;54.094;12.112;2023-03-19T10:12:22;5.35;;;2.92;;
5585;SDS011;2815;54.094;12.112;2023-03-19T10:15:16;3.80;;;2.67;;
5585;SDS011;2815;54.094;12.112;2023-03-19T10:18:06;4.72;;;3.08;;
5585;SDS011;2815;54.094;12.112;2023-03-19T10:20:59;3.35;;;2.40;;
5585;SDS011;2815;54.094;12.112;2023-03-19T10:23:49;3.25;;;2.55;;
5585;SDS011;2815;54.094;12.112;2023-03-19T10:26:38;3.63;;;2.30;;
5585;SDS011;2815;54.094;12.112;2023-03-19T10:29:25;4.05;;;2.28;;
5585;SDS011;2815;54.094;12.112;2023-03-19T10:32:15;4.70;;;2.97;;
5585;SDS011;2815;54.094;12.112;2023-03-19T10:35:06;3.38;;;2.60;;
5585;SDS011;2815;54.094;12.112;2023-03-19T10:37:57;3.80;;;2.22;;
5585;SDS011;2815;54.094;12.112;2023-03-19T10:41:07;4.03;;;2.80;;
5585;SDS011;2815;54.094;12.112;2023-03-19T10:44:04;5.07;;;2.90;;
5585;SDS011;2815;54.094;12.112;2023-03-19T10:46:56;5.63;;;2.80;;
5585;SDS011;2815;54.094;12.112;2023-03-19T10:49:44;5.20;;;3.10;;
5585;SDS011;2815;54.094;12.112;2023-03-19T10:52:33;4.20;;;2.53;;
5585;SDS011;2815;54.094;12.112;2023-03-19T10:55:22;6.25;;;3.00;;
5585;SDS011;2815;54.094;12.112;2023-03-19T10:58:14;4.63;;;2.83;;
5585;SDS011;2815;54.094;12.112;2023-03-19T11:01:03;4.85;;;2.83;;
5585;SDS011;2815;54.094;12.112;2023-03-19T11:03:54;3.90;;;2.47;;
5585;SDS011;2815;54.094;12.112;2023-03-19T11:06:42;5.45;;;2.70;;
5585;SDS011;2815;54.094;12.112;2023-03-19T11:09:36;3.38;;;2.65;;
5585;SDS011;2815;54.094;12.112;2023-03-19T11:12:24;5.50;;;2.80;;
5585;SDS011;2815;54.094;12.112;2023-03-19T11:15:15;6.32;;;2.97;;
5585;SDS011;2815;54.094;12.112;2023-03-19T11:18:05;3.58;;;2.50;;
5585;SDS011;2815;54.094;12.112;2023-03-19T11:20:54;5.78;;;2.53;;
5585;SDS011;2815;54.094;12.112;2023-03-19T11:23:43;3.85;;;2.30;;
5585;SDS011;2815;54.094;12.112;2023-03-19T11:26:32;4.15;;;2.55;;
5585;SDS011;2815;54.094;12.112;2023-03-19T11:29:19;3.75;;;2.70;;
5585;SDS011;2815;54.094;12.112;2023-03-19T11:32:09;5.95;;;2.80;;
5585;SDS011;2815;54.094;12.112;2023-03-19T11:35:06;4.28;;;2.90;;
5585;SDS011;2815;54.094;12.112;2023-03-19T11:37:57;6.78;;;2.50;;
5585;SDS011;2815;54.094;12.112;2023-03-19T11:40:45;4.57;;;2.60;;
5585;SDS011;2815;54.094;12.112;2023-03-19T11:43:38;4.43;;;2.70;;
5585;SDS011;2815;54.094;12.112;2023-03-19T11:46:36;5.63;;;2.83;;
5585;SDS011;2815;54.094;12.112;2023-03-19T11:49:39;4.47;;;2.70;;
5585;SDS011;2815;54.094;12.112;2023-03-19T11:52:32;3.80;;;2.60;;
5585;SDS011;2815;54.094;12.112;2023-03-19T11:55:24;5.30;;;2.22;;
5585;SDS011;2815;54.094;12.112;2023-03-19T12:01:37;6.20;;;2.60;;
5585;SDS011;2815;54.094;12.112;2023-03-19T12:04:35;3.88;;;1.95;;
5585;SDS011;2815;54.094;12.112;2023-03-19T12:07:29;4.63;;;2.20;;
5585;SDS011;2815;54.094;12.112;2023-03-19T12:13:40;2.92;;;2.08;;
5585;SDS011;2815;54.094;12.112;2023-03-19T12:16:38;6.35;;;2.30;;
5585;SDS011;2815;54.094;12.112;2023-03-19T12:23:09;3.75;;;2.10;;
5585;SDS011;2815;54.094;12.112;2023-03-19T12:25:59;5.00;;;1.80;;
5585;SDS011;2815;54.094;12.112;2023-03-19T12:28:53;3.35;;;2.00;;
5585;SDS011;2815;54.094;12.112;2023-03-19T12:31:48;3.17;;;2.20;;
5585;SDS011;2815;54.094;12.112;2023-03-19T12:34:45;4.30;;;2.30;;
5585;SDS011;2815;54.094;12.112;2023-03-19T12:37:34;3.65;;;2.17;;
5585;SDS011;2815;54.094;12.112;2023-03-19T12:40:25;4.18;;;1.75;;
5585;SDS011;2815;54.094;12.112;2023-03-19T12:43:16;3.17;;;2.10;;
5585;SDS011;2815;54.094;12.112;2023-03-19T12:46:06;3.10;;;2.10;;
5585;SDS011;2815;54.094;12.112;2023-03-19T12:48:55;4.93;;;2.45;;
5585;SDS011;2815;54.094;12.112;2023-03-19T12:51:45;4.13;;;2.60;;
5585;SDS011;2815;54.094;12.112;2023-03-19T12:54:35;4.53;;;2.60;;
5585;SDS011;2815;54.094;12.112;2023-03-19T12:57:26;3.60;;;2.22;;
5585;SDS011;2815;54.094;12.112;2023-03-19T13:00:18;4.70;;;2.45;;
5585;SDS011;2815;54.094;12.112;2023-03-19T13:03:12;4.20;;;2.47;;
5585;SDS011;2815;54.094;12.112;2023-03-19T13:08:54;4.22;;;2.60;;
5585;SDS011;2815;54.094;12.112;2023-03-19T13:11:44;4.30;;;2.05;;
5585;SDS011;2815;54.094;12.112;2023-03-19T13:14:33;3.70;;;1.98;;
5585;SDS011;2815;54.094;12.112;2023-03-19T13:17:24;4.70;;;2.00;;
5585;SDS011;2815;54.094;12.112;2023-03-19T13:20:19;4.15;;;1.92;;
5585;SDS011;2815;54.094;12.112;2023-03-19T13:23:10;6.25;;;2.33;;
5585;SDS011;2815;54.094;12.112;2023-03-19T13:25:59;4.70;;;2.10;;
5585;SDS011;2815;54.094;12.112;2023-03-19T13:28:53;3.10;;;1.65;;
5585;SDS011;2815;54.094;12.112;2023-03-19T13:31:41;4.60;;;2.25;;
5585;SDS011;2815;54.094;12.112;2023-03-19T13:34:30;5.43;;;2.35;;
5585;SDS011;2815;54.094;12.112;2023-03-19T13:37:19;6.05;;;2.58;;
5585;SDS011;2815;54.094;12.112;2023-03-19T13:40:34;4.88;;;2.28;;
5585;SDS011;2815;54.094;12.112;2023-03-19T13:46:38;5.22;;;2.58;;
5585;SDS011;2815;54.094;12.112;2023-03-19T13:49:29;5.82;;;2.10;;
5585;SDS011;2815;54.094;12.112;2023-03-19T13:52:40;4.85;;;2.08;;
5585;SDS011;2815;54.094;12.112;2023-03-19T13:55:42;3.78;;;2.30;;
5585;SDS011;2815;54.094;12.112;2023-03-19T13:58:43;5.28;;;2.30;;
5585;SDS011;2815;54.094;12.112;2023-03-19T14:01:40;5.18;;;2.00;;
5585;SDS011;2815;54.094;12.112;2023-03-19T14:04:29;3.92;;;2.33;;
5585;SDS011;2815;54.094;12.112;2023-03-19T14:07:17;4.18;;;2.67;;
5585;SDS011;2815;54.094;12.112;2023-03-19T14:10:11;6.15;;;2.92;;
5585;SDS011;2815;54.094;12.112;2023-03-19T14:13:00;3.90;;;2.75;;
5585;SDS011;2815;54.094;12.112;2023-03-19T14:15:49;5.53;;;3.38;;
5585;SDS011;2815;54.094;12.112;2023-03-19T14:18:38;4.82;;;3.20;;
5585;SDS011;2815;54.094;12.112;2023-03-19T14:21:30;5.88;;;2.97;;
5585;SDS011;2815;54.094;12.112;2023-03-19T14:24:24;5.53;;;3.08;;
5585;SDS011;2815;54.094;12.112;2023-03-19T14:27:35;4.05;;;2.90;;
5585;SDS011;2815;54.094;12.112;2023-03-19T14:30:26;3.75;;;3.22;;
5585;SDS011;2815;54.094;12.112;2023-03-19T14:33:16;11.50;;;3.50;;
5585;SDS011;2815;54.094;12.112;2023-03-19T14:36:04;5.13;;;3.10;;
5585;SDS011;2815;54.094;12.112;2023-03-19T14:38:52;7.53;;;3.40;;
5585;SDS011;2815;54.094;12.112;2023-03-19T14:41:42;10.25;;;3.55;;
5585;SDS011;2815;54.094;12.112;2023-03-19T14:44:46;4.90;;;3.45;;
5585;SDS011;2815;54.094;12.112;2023-03-19T14:47:54;6.05;;;4.13;;
5585;SDS011;2815;54.094;12.112;2023-03-19T14:54:27;6.05;;;3.75;;
5585;SDS011;2815;54.094;12.112;2023-03-19T14:57:17;5.68;;;3.83;;
5585;SDS011;2815;54.094;12.112;2023-03-19T15:00:11;5.63;;;3.85;;
5585;SDS011;2815;54.094;12.112;2023-03-19T15:02:59;7.82;;;4.20;;
5585;SDS011;2815;54.094;12.112;2023-03-19T15:05:46;8.35;;;4.60;;
5585;SDS011;2815;54.094;12.112;2023-03-19T15:08:34;6.65;;;4.75;;
5585;SDS011;2815;54.094;12.112;2023-03-19T15:11:35;7.72;;;4.95;;
5585;SDS011;2815;54.094;12.112;2023-03-19T15:14:32;8.43;;;5.25;;
5585;SDS011;2815;54.094;12.112;2023-03-19T15:17:36;12.20;;;5.95;;
5585;SDS011;2815;54.094;12.112;2023-03-19T15:20:23;8.60;;;6.30;;
5585;SDS011;2815;54.094;12.112;2023-03-19T15:23:10;8.98;;;6.45;;
5585;SDS011;2815;54.094;12.112;2023-03-19T15:26:11;9.50;;;6.45;;
5585;SDS011;2815;54.094;12.112;2023-03-19T15:29:00;11.75;;;6.78;;
5585;SDS011;2815;54.094;12.112;2023-03-19T15:31:48;12.73;;;7.07;;
5585;SDS011;2815;54.094;12.112;2023-03-19T15:34:49;10.75;;;6.20;;
5585;SDS011;2815;54.094;12.112;2023-03-19T15:37:42;11.80;;;7.18;;
5585;SDS011;2815;54.094;12.112;2023-03-19T15:40:32;11.30;;;6.80;;
5585;SDS011;2815;54.094;12.112;2023-03-19T15:43:21;11.27;;;6.63;;
5585;SDS011;2815;54.094;12.112;2023-03-19T15:46:09;10.80;;;7.05;;
5585;SDS011;2815;54.094;12.112;2023-03-19T15:48:58;11.43;;;7.00;;
5585;SDS011;2815;54.094;12.112;2023-03-19T15:51:50;11.55;;;6.82;;
5585;SDS011;2815;54.094;12.112;2023-03-19T15:54:38;12.60;;;7.43;;
5585;SDS011;2815;54.094;12.112;2023-03-19T15:57:25;11.23;;;7.53;;
5585;SDS011;2815;54.094;12.112;2023-03-19T16:00:13;10.88;;;6.80;;
5585;SDS011;2815;54.094;12.112;2023-03-19T16:03:00;11.40;;;7.13;;
5585;SDS011;2815;54.094;12.112;2023-03-19T16:05:49;11.40;;;6.75;;
5585;SDS011;2815;54.094;12.112;2023-03-19T16:08:44;11.50;;;7.25;;
5585;SDS011;2815;54.094;12.112;2023-03-19T16:11:40;10.77;;;7.13;;
5585;SDS011;2815;54.094;12.112;2023-03-19T16:14:30;12.40;;;8.50;;
5585;SDS011;2815;54.094;12.112;2023-03-19T16:17:18;14.05;;;8.02;;
5585;SDS011;2815;54.094;12.112;2023-03-19T16:20:12;12.20;;;7.68;;
5585;SDS011;2815;54.094;12.112;2023-03-19T16:22:59;11.05;;;7.63;;
5585;SDS011;2815;54.094;12.112;2023-03-19T16:25:47;13.52;;;8.45;;
5585;SDS011;2815;54.094;12.112;2023-03-19T16:28:34;13.98;;;8.43;;
5585;SDS011;2815;54.094;12.112;2023-03-19T16:31:29;14.20;;;7.38;;
5585;SDS011;2815;54.094;12.112;2023-03-19T16:37:26;12.48;;;8.07;;
5585;SDS011;2815;54.094;12.112;2023-03-19T16:43:31;13.50;;;8.55;;
5585;SDS011;2815;54.094;12.112;2023-03-19T16:46:21;11.65;;;8.23;;
5585;SDS011;2815;54.094;12.112;2023-03-19T16:49:08;13.05;;;8.15;;
5585;SDS011;2815;54.094;12.112;2023-03-19T16:51:54;12.77;;;8.23;;
5585;SDS011;2815;54.094;12.112;2023-03-19T16:54:42;16.65;;;10.00;;
5585;SDS011;2815;54.094;12.112;2023-03-19T16:57:29;19.98;;;11.15;;
5585;SDS011;2815;54.094;12.112;2023-03-19T17:00:18;20.90;;;11.07;;
5585;SDS011;2815;54.094;12.112;2023-03-19T17:03:05;17.33;;;10.95;;
5585;SDS011;2815;54.094;12.112;2023-03-19T17:05:56;19.65;;;11.05;;
5585;SDS011;2815;54.094;12.112;2023-03-19T17:08:43;15.82;;;10.00;;
5585;SDS011;2815;54.094;12.112;2023-03-19T17:11:32;15.90;;;10.13;;
5585;SDS011;2815;54.094;12.112;2023-03-19T17:14:20;19.98;;;10.63;;
5585;SDS011;2815;54.094;12.112;2023-03-19T17:17:11;18.52;;;10.10;;
5585;SDS011;2815;54.094;12.112;2023-03-19T17:20:02;18.13;;;10.23;;
5585;SDS011;2815;54.094;12.112;2023-03-19T17:22:50;24.90;;;11.48;;
5585;SDS011;2815;54.094;12.112;2023-03-19T17:25:37;19.55;;;11.82;;
5585;SDS011;2815;54.094;12.112;2023-03-19T17:28:24;18.65;;;11.27;;
5585;SDS011;2815;54.094;12.112;2023-03-19T17:31:17;23.13;;;12.13;;
5585;SDS011;2815;54.094;12.112;2023-03-19T17:34:10;16.88;;;11.38;;
5585;SDS011;2815;54.094;12.112;2023-03-19T17:36:58;19.42;;;11.75;;